createdAt,value
2023-05-21T05:31:33.170Z,55.3068
2023-05-21T05:32:35.139Z,55.6349
2023-05-21T05:33:37.118Z,57.7169
2023-05-21T05:34:39.171Z,57.7637
2023-05-21T05:35:41.235Z,56.8881
2023-05-21T05:36:43.274Z,56.3525
2023-05-21T05:37:45.313Z,56.0363
2023-05-21T05:38:47.380Z,55.8399
2023-05-21T05:39:49.383Z,55.6741
2023-05-21T05:40:51.430Z,55.5494
2023-05-21T05:41:53.511Z,55.4351
2023-05-21T05:42:55.553Z,55.3220
2023-05-21T05:43:57.588Z,55.2222
2023-05-21T05:44:59.632Z,55.2232
2023-05-21T05:46:01.703Z,55.2190
2023-05-21T05:47:03.709Z,55.3259
2023-05-21T05:48:05.766Z,55.3519
2023-05-21T05:49:07.806Z,55.3727
2023-05-21T05:50:09.867Z,55.3496
2023-05-21T05:51:11.920Z,55.3885
2023-05-21T05:52:13.939Z,55.3717
2023-05-21T05:53:15.976Z,55.3017
2023-05-21T05:54:18.022Z,55.2298
2023-05-21T05:55:20.098Z,55.1836
2023-05-21T05:56:22.138Z,55.1679
2023-05-21T05:57:24.155Z,55.1440
2023-05-21T05:58:26.231Z,55.0943
2023-05-21T05:59:28.288Z,55.0495
2023-05-21T06:00:30.350Z,55.0202
2023-05-21T06:01:32.370Z,54.9762
2023-05-21T06:02:34.467Z,54.8826
2023-05-21T06:03:36.679Z,54.8269
2023-05-21T06:04:38.489Z,54.7705
2023-05-21T06:05:40.780Z,54.7657
2023-05-21T06:06:42.591Z,54.7539
2023-05-21T06:07:44.608Z,54.7204
2023-05-21T06:08:46.666Z,54.6848
2023-05-21T06:09:48.715Z,54.6549
2023-05-21T06:10:50.753Z,54.6120
2023-05-21T06:11:52.793Z,54.5946
2023-05-21T06:12:54.851Z,54.5828
2023-05-21T06:13:56.884Z,54.6015
2023-05-21T06:14:58.928Z,54.6166
2023-05-21T06:16:01.043Z,54.6487
2023-05-21T06:17:03.036Z,54.6743
2023-05-21T06:18:05.071Z,54.6723
2023-05-21T06:19:07.128Z,54.6630
2023-05-21T06:20:09.129Z,54.6762
2023-05-21T06:21:11.199Z,54.6684
2023-05-21T06:22:13.262Z,54.6832
2023-05-21T06:23:15.285Z,54.6895
2023-05-21T06:24:17.312Z,54.7033
2023-05-21T06:25:19.375Z,54.7694
2023-05-21T06:26:21.414Z,54.7818
2023-05-21T06:27:23.455Z,54.7438
2023-05-21T06:28:25.490Z,54.7336
2023-05-21T06:29:27.586Z,54.7479
2023-05-21T06:30:29.608Z,54.7708
2023-05-21T06:31:31.630Z,54.7910
2023-05-21T06:32:33.821Z,54.7737
2023-05-21T06:33:35.844Z,54.7975
2023-05-21T06:34:37.793Z,54.8232
2023-05-21T06:35:39.820Z,54.8665
2023-05-21T06:36:41.884Z,54.9080
2023-05-21T06:37:43.939Z,54.9826
2023-05-21T06:38:45.970Z,55.0431
2023-05-21T06:39:48.035Z,55.1007
2023-05-21T06:40:50.049Z,55.1457
2023-05-21T06:41:52.084Z,55.1952
2023-05-21T06:42:54.149Z,55.2579
2023-05-21T06:43:56.188Z,55.3073
2023-05-21T06:44:58.239Z,55.3937
2023-05-21T06:46:00.298Z,55.4299
2023-05-21T06:47:02.305Z,55.4657
2023-05-21T06:48:04.401Z,55.5082
2023-05-21T06:49:06.426Z,55.5745
2023-05-21T06:50:08.461Z,55.5689
2023-05-21T06:51:10.526Z,55.5086
2023-05-21T06:52:12.646Z,55.5113
2023-05-21T06:53:14.580Z,55.4678
2023-05-21T06:54:16.677Z,55.4675
2023-05-21T06:55:18.701Z,55.4892
2023-05-21T06:56:20.735Z,55.4398
2023-05-21T06:57:22.774Z,55.4093
2023-05-21T06:58:24.805Z,55.4073
2023-05-21T06:59:26.869Z,55.4187
2023-05-21T07:00:28.918Z,55.4187
2023-05-21T07:01:31.024Z,55.4011
2023-05-21T07:02:33.181Z,55.4279
2023-05-21T07:03:35.090Z,55.4173
2023-05-21T07:04:37.103Z,55.3087
2023-05-21T07:05:39.643Z,55.2372
2023-05-21T07:06:41.181Z,55.2779
2023-05-21T07:07:43.224Z,55.3239
2023-05-21T07:08:45.295Z,55.2796
2023-05-21T07:09:47.344Z,55.2280
2023-05-21T07:10:49.388Z,55.1288
2023-05-21T07:11:59.002Z,55.0264
2023-05-21T07:12:54.019Z,55.0240
2023-05-21T07:13:55.588Z,54.9992
2023-05-21T07:14:59.371Z,55.0997
2023-05-21T07:15:59.599Z,55.1833
2023-05-21T07:17:01.744Z,55.1582
2023-05-21T07:18:04.519Z,55.0886
2023-05-21T07:19:05.913Z,54.9974
2023-05-21T07:20:07.769Z,55.0304
2023-05-21T07:21:09.822Z,55.0600
2023-05-21T07:22:11.906Z,55.0690
2023-05-21T07:23:13.930Z,55.0626
2023-05-21T07:24:15.982Z,55.0181
2023-05-21T07:25:18.047Z,54.9923
2023-05-21T07:26:20.045Z,55.0106
2023-05-21T07:27:25.738Z,54.9838
2023-05-21T07:28:24.174Z,55.0574
2023-05-21T07:29:26.224Z,55.0377
2023-05-21T07:30:28.252Z,55.1309
2023-05-21T07:31:30.371Z,55.1742
2023-05-21T07:32:32.357Z,55.3536
2023-05-21T07:33:34.408Z,55.3149
2023-05-21T07:34:36.444Z,55.3457
2023-05-21T07:35:38.602Z,55.3959
2023-05-21T07:36:40.567Z,55.3447
2023-05-21T07:37:42.578Z,55.2905
2023-05-21T07:38:44.620Z,55.1866
2023-05-21T07:39:46.666Z,55.1921
2023-05-21T07:40:48.707Z,55.2016
2023-05-21T07:41:50.780Z,55.1262
2023-05-21T07:42:52.836Z,54.9955
2023-05-21T07:43:54.868Z,55.0697
2023-05-21T07:44:56.918Z,54.9901
2023-05-21T07:45:58.983Z,54.9834
2023-05-21T07:47:01.011Z,55.0310
2023-05-21T07:48:03.138Z,55.0533
2023-05-21T07:49:05.120Z,55.1042
2023-05-21T07:50:07.134Z,55.1119
2023-05-21T07:51:09.210Z,55.1617
2023-05-21T07:52:11.251Z,55.3352
2023-05-21T07:53:13.336Z,55.4316
2023-05-21T07:54:15.404Z,55.4305
2023-05-21T07:55:18.034Z,55.3823
2023-05-21T07:56:19.410Z,55.4346
2023-05-21T07:57:21.500Z,55.4589
2023-05-21T07:58:23.517Z,55.5316
2023-05-21T07:59:26.586Z,55.6085
2023-05-21T08:00:27.596Z,55.4929
2023-05-21T08:01:29.662Z,55.4617
2023-05-21T08:02:31.792Z,55.6015
2023-05-21T08:03:33.920Z,55.7534
2023-05-21T08:04:37.478Z,55.8370
2023-05-21T08:05:38.147Z,55.8256
2023-05-21T08:06:40.228Z,55.9716
2023-05-21T08:07:41.918Z,56.0292
2023-05-21T08:08:44.000Z,56.0815
2023-05-21T08:09:46.052Z,56.0023
2023-05-21T08:10:48.089Z,55.9549
2023-05-21T08:11:50.222Z,56.0638
2023-05-21T08:12:52.194Z,56.1800
2023-05-21T08:13:54.250Z,56.1535
2023-05-21T08:14:56.261Z,56.0970
2023-05-21T08:15:58.339Z,56.1644
2023-05-21T08:17:00.381Z,56.2784
2023-05-21T08:18:02.535Z,56.2878
2023-05-21T08:19:04.502Z,56.4582
2023-05-21T08:20:06.512Z,56.5006
2023-05-21T08:21:08.579Z,56.3446
2023-05-21T08:22:10.655Z,56.5688
2023-05-21T08:23:12.721Z,56.8014
2023-05-21T08:24:14.819Z,56.7875
2023-05-21T08:25:16.734Z,56.8142
2023-05-21T08:26:18.821Z,56.9163
2023-05-21T08:27:20.830Z,56.6175
2023-05-21T08:28:22.900Z,56.4903
2023-05-21T08:29:24.924Z,56.4836
2023-05-21T08:30:27.146Z,56.2517
2023-05-21T08:31:29.204Z,56.6687
2023-05-21T08:32:31.124Z,57.5357
2023-05-21T08:33:33.138Z,57.8649
2023-05-21T08:34:36.685Z,58.0794
2023-05-21T08:35:37.382Z,57.9868
2023-05-21T08:36:39.359Z,57.8390
2023-05-21T08:37:41.339Z,57.9496
2023-05-21T08:38:43.362Z,57.9029
2023-05-21T08:39:45.506Z,57.9361
2023-05-21T08:40:47.456Z,58.0136
2023-05-21T08:41:49.770Z,58.1598
2023-05-21T08:42:51.594Z,58.4711
2023-05-21T08:43:54.952Z,58.4189
2023-05-21T08:44:55.727Z,58.4234
2023-05-21T08:45:57.711Z,58.3243
2023-05-21T08:46:59.759Z,58.2240
2023-05-21T08:48:01.835Z,58.0098
2023-05-21T08:49:03.868Z,57.9771
2023-05-21T08:50:05.871Z,58.1725
2023-05-21T08:51:07.937Z,58.3312
2023-05-21T08:52:09.985Z,58.3112
2023-05-21T08:53:23.417Z,58.1804
2023-05-21T08:54:14.097Z,58.1010
2023-05-21T08:55:16.122Z,57.9221
2023-05-21T08:56:18.285Z,57.7186
2023-05-21T08:57:20.256Z,57.7552
2023-05-21T08:58:22.285Z,57.8089
2023-05-21T08:59:24.342Z,57.6835
2023-05-21T09:00:26.373Z,57.6020
2023-05-21T09:01:28.498Z,57.7854
2023-05-21T09:02:30.535Z,57.8709
2023-05-21T09:03:32.579Z,57.9587
2023-05-21T09:04:34.739Z,57.8487
2023-05-21T09:05:36.797Z,57.7836
2023-05-21T09:06:38.741Z,57.9593
2023-05-21T09:07:40.745Z,57.8480
2023-05-21T09:08:42.780Z,57.5044
2023-05-21T09:09:44.823Z,57.1938
2023-05-21T09:10:46.904Z,57.4874
2023-05-21T09:11:48.927Z,57.6321
2023-05-21T09:12:52.019Z,57.5258
2023-05-21T09:13:53.032Z,57.4291
2023-05-21T09:14:55.044Z,57.7210
2023-05-21T09:15:57.099Z,58.1094
2023-05-21T09:16:59.428Z,58.4813
2023-05-21T09:18:01.237Z,58.6355
2023-05-21T09:19:04.603Z,58.5945
2023-05-21T09:20:05.350Z,58.4942
2023-05-21T09:21:07.377Z,58.4148
2023-05-21T09:22:09.415Z,58.4121
2023-05-21T09:23:11.535Z,58.4649
2023-05-21T09:24:13.518Z,58.4103
2023-05-21T09:25:15.675Z,58.1917
2023-05-21T09:26:17.614Z,58.2631
2023-05-21T09:27:19.668Z,58.2336
2023-05-21T09:28:21.756Z,58.0226
2023-05-21T09:29:23.737Z,57.5451
2023-05-21T09:30:28.814Z,57.9003
2023-05-21T09:31:27.902Z,57.7084
2023-05-21T09:32:29.964Z,57.4202
2023-05-21T09:33:32.010Z,57.7643
2023-05-21T09:34:34.060Z,57.4536
2023-05-21T09:35:37.503Z,57.3520
2023-05-21T09:36:38.192Z,57.2134
2023-05-21T09:37:40.231Z,56.4138
2023-05-21T09:38:42.283Z,56.1602
2023-05-21T09:39:44.303Z,56.3028
2023-05-21T09:40:46.396Z,56.4967
2023-05-21T09:41:48.417Z,57.0557
2023-05-21T09:42:50.488Z,57.0881
2023-05-21T09:43:52.499Z,56.9928
2023-05-21T09:44:54.536Z,56.9235
2023-05-21T09:45:57.750Z,56.9329
2023-05-21T09:46:58.843Z,56.7123
2023-05-21T09:48:00.802Z,56.9348
2023-05-21T09:49:02.746Z,57.1682
2023-05-21T09:50:04.821Z,57.3788
2023-05-21T09:51:06.816Z,57.4237
2023-05-21T09:52:08.870Z,57.3419
2023-05-21T09:53:10.968Z,57.1499
2023-05-21T09:54:12.986Z,57.3300
2023-05-21T09:55:15.019Z,57.4610
2023-05-21T09:56:17.105Z,57.4617
2023-05-21T09:57:19.131Z,57.3153
2023-05-21T09:58:21.212Z,57.3267
2023-05-21T09:59:23.799Z,57.0755
2023-05-21T10:00:25.257Z,56.9946
2023-05-21T10:01:27.374Z,56.8959
2023-05-21T10:02:29.428Z,56.7438
2023-05-21T10:03:31.434Z,56.6781
2023-05-21T10:04:33.469Z,56.7650
2023-05-21T10:05:35.521Z,56.8629
2023-05-21T10:06:37.566Z,56.9201
2023-05-21T10:07:39.595Z,56.9879
2023-05-21T10:08:41.655Z,57.1635
2023-05-21T10:09:43.714Z,56.8017
2023-05-21T10:10:45.736Z,56.4691
2023-05-21T10:11:47.801Z,56.2878
2023-05-21T10:12:49.879Z,56.0939
2023-05-21T10:13:51.882Z,56.0874
2023-05-21T10:14:53.890Z,56.6640
2023-05-21T10:15:55.950Z,57.1865
2023-05-21T10:16:58.083Z,57.3544
2023-05-21T10:18:00.080Z,57.4326
2023-05-21T10:19:02.140Z,57.3938
2023-05-21T10:20:04.135Z,57.6017
2023-05-21T10:21:06.161Z,57.4186
2023-05-21T10:22:08.209Z,57.4018
2023-05-21T10:23:10.259Z,56.6757
2023-05-21T10:24:12.312Z,56.5395
2023-05-21T10:25:14.380Z,56.3326
2023-05-21T10:26:16.394Z,56.3582
2023-05-21T10:27:18.426Z,56.2628
2023-05-21T10:28:20.518Z,56.1621
2023-05-21T10:29:22.529Z,56.5848
2023-05-21T10:30:24.559Z,56.7789
2023-05-21T10:31:26.644Z,56.4886
2023-05-21T10:32:28.966Z,56.4891
2023-05-21T10:33:30.787Z,56.5849
2023-05-21T10:34:32.738Z,56.5208
2023-05-21T10:36:36.858Z,57.3463
2023-05-21T10:37:38.905Z,57.0932
2023-05-21T10:38:41.180Z,57.3258
2023-05-21T10:39:42.973Z,57.4949
2023-05-21T10:40:45.013Z,57.8328
2023-05-21T10:41:47.163Z,57.4775
2023-05-21T10:42:49.135Z,57.3106
2023-05-21T10:43:51.202Z,57.2687
2023-05-21T10:44:53.212Z,57.0290
2023-05-21T10:45:55.361Z,56.6888
2023-05-21T10:46:57.275Z,56.5223
2023-05-21T10:47:59.318Z,56.5440
2023-05-21T10:49:01.367Z,56.4234
2023-05-21T10:50:03.415Z,56.2263
2023-05-21T10:51:05.507Z,55.8096
2023-05-21T10:52:07.508Z,55.6381
2023-05-21T10:53:10.925Z,55.5197
2023-05-21T10:54:11.571Z,55.2895
2023-05-21T10:55:13.825Z,55.2618
2023-05-21T10:56:15.729Z,55.4096
2023-05-21T10:57:17.731Z,55.4569
2023-05-21T10:58:19.748Z,55.3150
2023-05-21T10:59:21.819Z,55.1628
2023-05-21T11:00:23.853Z,55.1392
2023-05-21T11:01:26.042Z,55.2725
2023-05-21T11:02:28.003Z,55.0019
2023-05-21T11:03:30.180Z,54.7582
2023-05-21T11:04:32.023Z,54.7552
2023-05-21T11:05:34.079Z,54.7487
2023-05-21T11:06:36.128Z,54.5513
2023-05-21T11:07:38.174Z,54.6004
2023-05-21T11:08:40.217Z,54.7988
2023-05-21T11:09:42.273Z,54.6374
2023-05-21T11:10:44.288Z,54.5083
2023-05-21T11:11:46.475Z,54.5276
2023-05-21T11:12:48.382Z,54.6331
2023-05-21T11:13:50.439Z,54.6649
2023-05-21T11:14:52.445Z,54.4783
2023-05-21T11:15:54.568Z,54.5241
2023-05-21T11:16:56.578Z,54.6308
2023-05-21T11:17:58.676Z,54.1778
2023-05-21T11:19:00.902Z,53.8160
2023-05-21T11:20:02.682Z,53.6060
2023-05-21T11:21:04.747Z,53.4746
2023-05-21T11:22:06.864Z,53.6190
2023-05-21T11:23:08.824Z,53.9332
2023-05-21T11:24:10.869Z,54.1489
2023-05-21T11:25:12.909Z,53.8820
2023-05-21T11:26:14.943Z,53.4703
2023-05-21T11:27:17.118Z,53.1979
2023-05-21T11:28:19.056Z,53.0149
2023-05-21T11:29:21.113Z,52.8776
2023-05-21T11:30:23.130Z,53.0838
2023-05-21T11:31:25.219Z,52.6781
2023-05-21T11:32:27.218Z,52.6204
2023-05-21T11:33:29.375Z,52.4497
2023-05-21T11:34:31.296Z,52.5048
2023-05-21T11:35:33.346Z,52.5118
2023-05-21T11:36:36.084Z,52.1600
2023-05-21T11:37:37.404Z,52.1901
2023-05-21T11:38:39.457Z,52.2590
2023-05-21T11:39:41.600Z,52.5307
2023-05-21T11:40:43.572Z,52.7111
2023-05-21T11:41:45.610Z,52.6011
2023-05-21T11:42:47.636Z,52.4803
2023-05-21T11:43:49.681Z,52.0337
2023-05-21T11:44:51.716Z,51.5040
2023-05-21T11:45:53.852Z,51.2147
2023-05-21T11:46:55.952Z,51.3215
2023-05-21T11:47:57.917Z,51.4426
2023-05-21T11:48:59.915Z,51.5082
2023-05-21T11:50:01.953Z,51.3815
2023-05-21T11:51:04.012Z,51.2461
2023-05-21T11:52:06.064Z,51.4456
2023-05-21T11:53:08.127Z,51.7436
2023-05-21T11:54:10.218Z,51.5732
2023-05-21T11:55:12.462Z,51.6107
2023-05-21T11:56:14.235Z,51.4251
2023-05-21T11:57:16.322Z,50.9930
2023-05-21T11:58:18.354Z,50.4508
2023-05-21T11:59:20.942Z,49.8165
2023-05-21T12:00:22.484Z,49.7857
2023-05-21T12:01:24.455Z,49.8760
2023-05-21T12:02:26.555Z,50.0176
2023-05-21T12:03:28.595Z,50.3396
2023-05-21T12:04:30.575Z,50.1033
2023-05-21T12:05:32.698Z,50.3622
2023-05-21T12:06:34.695Z,50.4641
2023-05-21T12:07:36.755Z,50.3321
2023-05-21T12:08:38.753Z,50.4951
2023-05-21T12:09:40.895Z,50.2970
2023-05-21T12:10:44.427Z,50.1430
2023-05-21T12:11:44.907Z,50.0752
2023-05-21T12:12:55.610Z,49.8693
2023-05-21T12:13:49.010Z,49.8176
2023-05-21T12:14:51.017Z,49.6771
2023-05-21T12:15:53.069Z,49.6563
2023-05-21T12:16:55.163Z,49.7213
2023-05-21T12:17:57.396Z,49.6717
2023-05-21T12:18:59.250Z,49.9158
2023-05-21T12:20:01.290Z,50.1342
2023-05-21T12:21:03.349Z,50.0301
2023-05-21T12:22:05.368Z,49.8212
2023-05-21T12:23:07.418Z,49.9317
2023-05-21T12:24:09.547Z,50.2410
2023-05-21T12:25:11.535Z,50.0170
2023-05-21T12:26:13.586Z,49.9933
2023-05-21T12:27:15.735Z,50.0865
2023-05-21T12:28:17.687Z,50.0850
2023-05-21T12:29:19.702Z,50.2482
2023-05-21T12:30:21.802Z,50.2242
2023-05-21T12:31:23.846Z,50.1628
2023-05-21T12:32:25.918Z,49.8719
2023-05-21T12:33:27.894Z,49.9367
2023-05-21T12:34:29.943Z,49.9069
2023-05-21T12:35:32.082Z,50.2267
2023-05-21T12:36:34.071Z,50.5706
2023-05-21T12:37:36.111Z,50.8439
2023-05-21T12:38:38.126Z,50.8011
2023-05-21T12:39:40.175Z,50.5948
2023-05-21T12:40:42.234Z,50.6226
2023-05-21T12:41:44.281Z,50.8477
2023-05-21T12:42:46.325Z,50.7204
2023-05-21T12:43:48.371Z,50.7607
2023-05-21T12:44:50.404Z,50.5988
2023-05-21T12:45:52.503Z,50.6939
2023-05-21T12:46:54.513Z,50.6197
2023-05-21T12:47:56.753Z,50.6241
2023-05-21T12:48:58.589Z,50.7578
2023-05-21T12:50:00.641Z,50.8445
2023-05-21T12:51:02.704Z,50.7541
2023-05-21T12:52:04.761Z,51.2357
2023-05-21T12:53:06.830Z,51.7302
2023-05-21T12:54:08.832Z,51.6261
2023-05-21T12:55:10.895Z,51.5224
2023-05-21T12:56:12.917Z,51.6993
2023-05-21T12:57:14.980Z,51.7972
2023-05-21T12:58:17.002Z,52.3011
2023-05-21T12:59:19.055Z,52.8635
2023-05-21T13:00:21.107Z,52.7356
2023-05-21T13:01:23.167Z,52.8930
2023-05-21T13:02:25.243Z,52.7636
2023-05-21T13:03:27.248Z,52.9563
2023-05-21T13:04:29.308Z,53.1457
2023-05-21T13:05:31.327Z,53.3629
2023-05-21T13:06:33.388Z,53.3626
2023-05-21T13:07:35.417Z,53.5373
2023-05-21T13:08:37.489Z,53.3314
2023-05-21T13:09:39.513Z,53.5108
2023-05-21T13:10:41.565Z,53.6540
2023-05-21T13:11:43.658Z,53.8315
2023-05-21T13:12:45.700Z,54.0771
2023-05-21T13:13:47.727Z,54.3960
2023-05-21T13:14:49.773Z,54.3468
2023-05-21T13:15:51.802Z,54.5947
2023-05-21T13:16:53.869Z,54.8024
2023-05-21T13:17:56.948Z,54.7717
2023-05-21T13:18:58.031Z,54.7821
2023-05-21T13:20:00.005Z,54.8254
2023-05-21T13:21:02.021Z,54.4691
2023-05-21T13:22:04.097Z,54.4740
2023-05-21T13:23:07.263Z,54.4470
2023-05-21T13:24:08.170Z,54.5108
2023-05-21T13:25:10.235Z,54.6065
2023-05-21T13:26:12.283Z,54.5638
2023-05-21T13:27:14.330Z,54.5920
2023-05-21T13:28:16.359Z,54.6775
2023-05-21T13:29:18.437Z,54.4391
2023-05-21T13:30:20.486Z,54.2774
2023-05-21T13:31:22.492Z,54.4085
2023-05-21T13:32:24.622Z,54.4241
2023-05-21T13:33:26.801Z,54.1947
2023-05-21T13:34:28.637Z,54.1766
2023-05-21T13:35:31.177Z,54.5519
2023-05-21T13:36:32.725Z,54.5375
2023-05-21T13:37:34.765Z,54.5035
2023-05-21T13:38:36.823Z,54.5747
2023-05-21T13:39:38.897Z,54.9501
2023-05-21T13:40:41.102Z,55.0331
2023-05-21T13:41:43.044Z,55.1426
2023-05-21T13:42:45.200Z,55.1924
2023-05-21T13:43:47.117Z,54.8958
2023-05-21T13:44:49.194Z,54.6461
2023-05-21T13:45:51.228Z,54.6809
2023-05-21T13:46:53.353Z,54.8162
2023-05-21T13:47:55.363Z,54.7593
2023-05-21T13:48:57.348Z,54.6464
2023-05-21T13:49:59.412Z,54.4836
2023-05-21T13:51:01.446Z,54.1585
2023-05-21T13:52:03.579Z,53.8173
2023-05-21T13:53:05.485Z,53.7872
2023-05-21T13:54:07.544Z,53.8628
2023-05-21T13:55:09.574Z,53.4091
2023-05-21T13:56:11.637Z,53.1130
2023-05-21T13:57:13.694Z,53.0778
2023-05-21T13:58:15.746Z,52.5249
2023-05-21T13:59:17.763Z,52.3209
2023-05-21T14:00:19.831Z,52.3567
2023-05-21T14:01:21.926Z,52.9487
2023-05-21T14:02:24.042Z,52.9253
2023-05-21T14:03:26.010Z,52.1887
2023-05-21T14:04:28.007Z,51.6655
2023-05-21T14:05:30.021Z,51.4871
2023-05-21T14:06:32.101Z,51.3279
2023-05-21T14:07:34.170Z,51.4216
2023-05-21T14:08:36.214Z,51.4192
2023-05-21T14:09:38.240Z,51.4746
2023-05-21T14:10:40.308Z,51.5085
2023-05-21T14:11:42.404Z,51.6727
2023-05-21T14:12:44.343Z,51.7780
2023-05-21T14:13:46.397Z,52.0741
2023-05-21T14:14:48.498Z,52.5833
2023-05-21T14:15:50.524Z,52.4241
2023-05-21T14:16:52.873Z,52.0819
2023-05-21T14:17:54.782Z,51.8516
2023-05-21T14:18:56.687Z,51.8597
2023-05-21T14:19:58.747Z,51.9899
2023-05-21T14:21:00.764Z,51.9888
2023-05-21T14:22:02.781Z,51.6209
2023-05-21T14:23:04.832Z,51.8493
2023-05-21T14:24:07.016Z,52.1375
2023-05-21T14:25:08.968Z,51.4061
2023-05-21T14:26:11.011Z,51.1025
2023-05-21T14:27:15.273Z,50.7572
2023-05-21T14:28:15.138Z,49.8143
2023-05-21T14:29:17.054Z,49.4939
2023-05-21T14:30:19.116Z,49.3301
2023-05-21T14:31:21.154Z,49.4524
2023-05-21T14:32:23.449Z,49.2485
2023-05-21T14:33:25.270Z,49.0754
2023-05-21T14:34:27.290Z,48.8217
2023-05-21T14:35:29.396Z,48.9677
2023-05-21T14:36:31.543Z,49.0804
2023-05-21T14:37:33.474Z,49.1748
2023-05-21T14:38:35.448Z,48.8815
2023-05-21T14:39:37.507Z,48.8492
2023-05-21T14:40:39.636Z,48.6889
2023-05-21T14:41:41.627Z,48.7077
2023-05-21T14:42:43.681Z,48.8305
2023-05-21T14:43:45.685Z,48.8610
2023-05-21T14:44:47.751Z,48.6100
2023-05-21T14:45:49.786Z,48.4546
2023-05-21T14:46:51.852Z,48.4326
2023-05-21T14:47:53.940Z,48.6137
2023-05-21T14:48:55.912Z,47.8218
2023-05-21T14:49:58.074Z,47.6833
2023-05-21T14:51:00.072Z,47.8065
2023-05-21T14:52:02.050Z,47.7916
2023-05-21T14:53:04.146Z,47.4745
2023-05-21T14:54:06.129Z,46.9758
2023-05-21T14:55:08.152Z,46.6047
2023-05-21T14:56:10.259Z,47.0940
2023-05-21T14:57:12.355Z,47.7990
2023-05-21T14:58:14.773Z,47.4605
2023-05-21T14:59:16.358Z,47.0614
2023-05-21T15:00:18.420Z,46.9915
2023-05-21T15:01:20.480Z,46.7323
2023-05-21T15:02:22.559Z,46.3859
2023-05-21T15:03:24.710Z,46.6170
2023-05-21T15:04:26.686Z,47.3736
2023-05-21T15:05:28.653Z,47.9949
2023-05-21T15:06:30.696Z,47.3650
2023-05-21T15:07:32.712Z,47.2404
2023-05-21T15:08:34.850Z,47.9597
2023-05-21T15:09:36.817Z,47.7227
2023-05-21T15:10:38.911Z,48.1436
2023-05-21T15:11:40.915Z,48.4065
2023-05-21T15:12:43.032Z,48.8835
2023-05-21T15:13:44.994Z,49.2041
2023-05-21T15:14:47.021Z,49.0649
2023-05-21T15:15:49.114Z,49.4157
2023-05-21T15:16:51.249Z,49.7082
2023-05-21T15:17:53.211Z,49.9593
2023-05-21T15:18:55.238Z,50.0583
2023-05-21T15:19:57.295Z,50.1721
2023-05-21T15:20:59.339Z,50.1465
2023-05-21T15:22:01.405Z,49.9927
2023-05-21T15:24:05.452Z,50.2943
2023-05-21T15:25:07.540Z,49.9575
2023-05-21T15:26:09.554Z,49.4305
2023-05-21T15:27:11.615Z,49.4389
2023-05-21T15:28:13.665Z,49.5722
2023-05-21T15:29:15.708Z,49.9069
2023-05-21T15:30:17.745Z,50.5023
2023-05-21T15:31:19.789Z,50.2257
2023-05-21T15:32:21.920Z,49.9828
2023-05-21T15:33:23.896Z,49.8087
2023-05-21T15:34:25.958Z,49.7686
2023-05-21T15:35:28.148Z,49.3045
2023-05-21T15:36:30.007Z,49.0117
2023-05-21T15:37:32.118Z,48.8295
2023-05-21T15:38:34.133Z,48.6015
2023-05-21T15:39:36.173Z,48.4603
2023-05-21T15:40:38.233Z,48.1522
2023-05-21T15:41:40.280Z,47.9081
2023-05-21T15:42:42.288Z,47.7447
2023-05-21T15:43:44.328Z,47.4880
2023-05-21T15:44:46.449Z,47.2034
2023-05-21T15:45:48.448Z,47.1957
2023-05-21T15:46:50.524Z,47.0935
2023-05-21T15:47:52.669Z,46.9170
2023-05-21T15:48:54.580Z,46.8194
2023-05-21T15:49:56.639Z,46.8957
2023-05-21T15:50:58.655Z,47.0255
2023-05-21T15:52:00.693Z,47.1964
2023-05-21T15:53:02.758Z,46.9996
2023-05-21T15:54:04.785Z,46.9869
2023-05-21T15:55:06.832Z,47.0838
2023-05-21T15:56:08.871Z,47.1484
2023-05-21T15:57:10.951Z,47.2229
2023-05-21T15:58:13.003Z,47.2127
2023-05-21T15:59:15.042Z,47.1507
